Time;durP1;ratioP1;P1;durP2;ratioP2;P2;SDS_P1;SDS_P2;PMS_P1;PMS_P2;Temp;Humidity;BMP_temperature;BMP_pressure;BME280_temperature;BME280_humidity;BME280_pressure;Samples;Min_cycle;Max_cycle;Signal;HPM_P1;HPM_P2
2022/03/21 00:01:51;;;;;;;4.80;4.30;;;8.50;42.90;8.50;97720.00;;;;4934050;28;20208;-83
2022/03/21 00:04:18;;;;;;;5.50;4.30;;;8.40;42.80;8.50;97721.00;;;;4933657;28;20229;-82
2022/03/21 00:06:45;;;;;;;6.37;5.07;;;8.40;42.80;8.40;97708.00;;;;4933732;28;20215;-82
2022/03/21 00:09:14;;;;;;;5.03;4.53;;;8.40;42.90;8.40;97716.00;;;;4917391;28;20209;-82
2022/03/21 00:11:41;;;;;;;4.53;4.07;;;8.30;43.10;8.40;97721.00;;;;4998280;28;20209;-83
2022/03/21 00:14:11;;;;;;;5.20;4.47;;;8.30;43.10;8.30;97720.00;;;;5014063;28;20229;-83
2022/03/21 00:16:39;;;;;;;5.13;4.63;;;8.30;43.10;8.30;97726.00;;;;5014314;28;20210;-82
2022/03/21 00:19:07;;;;;;;4.67;4.30;;;8.20;43.10;8.30;97719.00;;;;4936433;28;20224;-83
2022/03/21 00:21:35;;;;;;;5.90;4.43;;;8.20;43.20;8.20;97724.00;;;;4932110;28;20630;-83
2022/03/21 00:24:02;;;;;;;6.23;4.40;;;8.20;43.40;8.20;97725.00;;;;4944261;28;20274;-82
2022/03/21 00:26:31;;;;;;;5.13;4.53;;;8.20;43.40;8.20;97719.00;;;;4935446;28;20211;-83
2022/03/21 00:28:58;;;;;;;4.67;4.23;;;8.10;43.50;8.20;97723.00;;;;4940363;29;20216;-82
2022/03/21 00:31:25;;;;;;;4.67;4.20;;;8.20;43.60;8.10;97713.00;;;;4932954;28;20216;-83
2022/03/21 00:33:52;;;;;;;5.80;4.13;;;8.10;43.60;8.10;97715.00;;;;4933695;28;20200;-82
2022/03/21 00:36:19;;;;;;;5.03;4.53;;;8.00;43.50;8.00;97728.00;;;;4920323;28;20209;-83
2022/03/21 00:38:46;;;;;;;4.80;4.30;;;8.00;43.70;8.00;97720.00;;;;4933042;28;20706;-82
2022/03/21 00:41:13;;;;;;;5.10;4.60;;;8.00;43.80;7.90;97726.00;;;;4921734;29;20206;-82
2022/03/21 00:43:41;;;;;;;5.73;4.73;;;7.90;43.90;7.90;97725.00;;;;4962275;28;20229;-83
2022/03/21 00:46:10;;;;;;;4.83;4.40;;;7.90;44.10;7.80;97717.00;;;;5002810;28;20221;-82
2022/03/21 00:48:37;;;;;;;5.30;4.30;;;7.80;44.30;7.80;97731.00;;;;4992947;28;20311;-82
2022/03/21 00:51:04;;;;;;;4.67;4.27;;;7.80;44.40;7.80;97728.00;;;;5033421;28;20576;-83
2022/03/21 00:53:31;;;;;;;5.67;4.63;;;7.80;44.50;7.70;97726.00;;;;4983742;28;20670;-82
2022/03/21 00:55:58;;;;;;;5.63;4.87;;;7.80;44.60;7.70;97722.00;;;;4931356;28;20211;-82
2022/03/21 00:58:25;;;;;;;5.10;4.60;;;7.70;44.60;7.60;97729.00;;;;5018742;28;20238;-82
2022/03/21 01:00:54;;;;;;;5.10;4.60;;;7.70;44.70;7.60;97715.00;;;;4954839;28;20205;-83
2022/03/21 01:03:21;;;;;;;6.03;4.87;;;7.60;44.70;7.60;97724.00;;;;4946946;28;20867;-83
2022/03/21 01:05:48;;;;;;;6.20;4.67;;;7.60;44.70;7.50;97729.00;;;;4934822;28;20584;-83
2022/03/21 01:08:15;;;;;;;6.27;5.00;;;7.60;45.00;7.50;97733.00;;;;4942801;28;20201;-83
2022/03/21 01:10:42;;;;;;;6.20;4.70;;;7.50;45.00;7.40;97725.00;;;;4932319;28;20205;-82
2022/03/21 01:13:09;;;;;;;5.97;4.57;;;7.50;45.20;7.40;97722.00;;;;4931809;29;20204;-82
2022/03/21 01:15:36;;;;;;;4.93;4.43;;;7.50;45.30;7.40;97718.00;;;;4932457;29;20209;-82
2022/03/21 01:18:04;;;;;;;4.50;4.10;;;7.40;45.20;7.30;97722.00;;;;4932529;29;20197;-83
2022/03/21 01:20:32;;;;;;;6.43;4.83;;;7.40;45.50;7.30;97727.00;;;;4931872;29;20605;-82
2022/03/21 01:22:59;;;;;;;5.13;4.20;;;7.40;45.60;7.20;97725.00;;;;4931162;29;20200;-82
2022/03/21 01:25:26;;;;;;;5.13;4.60;;;7.30;45.50;7.20;97722.00;;;;4931852;28;20208;-82
2022/03/21 01:27:53;;;;;;;4.63;4.23;;;7.20;45.50;7.10;97724.00;;;;4932398;28;20205;-83
2022/03/21 01:30:20;;;;;;;5.27;4.77;;;7.20;45.50;7.10;97719.00;;;;4932562;28;20229;-83
2022/03/21 01:32:47;;;;;;;4.90;4.50;;;7.20;45.60;7.10;97717.00;;;;4932615;28;20201;-83
2022/03/21 01:35:18;;;;;;;5.53;4.27;;;7.10;45.60;7.00;97713.00;;;;4931750;28;20224;-82
2022/03/21 01:37:46;;;;;;;5.60;4.43;;;7.10;45.50;7.00;97724.00;;;;4932589;29;20207;-82
2022/03/21 01:40:14;;;;;;;4.97;4.50;;;7.10;45.50;7.00;97719.00;;;;4932191;28;20221;-82
2022/03/21 01:42:46;;;;;;;4.67;4.27;;;7.00;45.70;6.90;97719.00;;;;4932332;29;20613;-82
2022/03/21 01:45:14;;;;;;;4.93;4.53;;;7.00;45.80;6.90;97724.00;;;;4930328;28;20711;-82
2022/03/21 01:47:41;;;;;;;5.10;4.60;;;6.90;45.90;6.80;97717.00;;;;4930508;28;20205;-82
2022/03/21 01:50:10;;;;;;;4.80;4.33;;;6.90;45.90;6.80;97716.00;;;;4931424;29;20225;-83
2022/03/21 01:52:39;;;;;;;5.07;4.53;;;6.90;46.00;6.80;97715.00;;;;4931845;28;20205;-83
2022/03/21 01:57:53;;;;;;;6.37;4.93;;;6.80;46.00;6.70;97716.00;;;;4912541;29;20193;-82
2022/03/21 02:00:21;;;;;;;5.13;4.63;;;6.80;46.00;6.70;97719.00;;;;4922639;29;20255;-82
2022/03/21 02:02:48;;;;;;;5.13;4.40;;;6.80;46.10;6.70;97717.00;;;;4931412;28;20737;-83
2022/03/21 02:05:15;;;;;;;4.77;4.30;;;6.70;46.10;6.70;97724.00;;;;4930888;28;20701;-82
2022/03/21 02:07:45;;;;;;;4.50;4.10;;;6.70;46.20;6.60;97709.00;;;;4938835;28;20658;-83
2022/03/21 02:10:12;;;;;;;4.73;4.33;;;6.70;46.30;6.60;97706.00;;;;4927954;28;20220;-82
2022/03/21 02:12:40;;;;;;;5.70;4.80;;;6.60;46.30;6.50;97714.00;;;;4939440;29;20680;-82
2022/03/21 02:15:09;;;;;;;8.10;4.47;;;6.60;46.30;6.50;97717.00;;;;4931315;29;20215;-83
2022/03/21 02:17:41;;;;;;;5.30;4.50;;;6.60;46.40;6.50;97718.00;;;;4926752;28;20205;-82
2022/03/21 02:20:10;;;;;;;7.20;4.47;;;6.50;46.40;6.40;97722.00;;;;4940991;28;20216;-82
2022/03/21 02:22:57;;;;;;;5.30;4.80;;;6.50;46.50;6.40;97721.00;;;;4930893;29;20204;-83
2022/03/21 02:25:31;;;;;;;5.60;4.63;;;6.40;46.60;6.40;97727.00;;;;4931437;28;20220;-83
2022/03/21 02:28:01;;;;;;;5.10;4.60;;;6.40;46.70;6.30;97737.00;;;;4926923;28;20211;-83
2022/03/21 02:30:32;;;;;;;5.63;4.70;;;6.30;46.70;6.30;97722.00;;;;4912786;29;20222;-83
2022/03/21 02:33:01;;;;;;;6.17;4.47;;;6.30;46.90;6.20;97718.00;;;;4912338;29;20186;-83
2022/03/21 02:35:31;;;;;;;5.47;4.47;;;6.30;47.60;6.20;97721.00;;;;4923262;28;20205;-83
2022/03/21 02:37:59;;;;;;;5.70;5.17;;;6.30;47.10;6.20;97718.00;;;;4933608;28;20207;-83
2022/03/21 02:40:28;;;;;;;5.17;4.67;;;6.20;47.00;6.10;97716.00;;;;4936307;28;20596;-83
2022/03/21 02:42:55;;;;;;;5.00;4.13;;;6.20;47.10;6.10;97707.00;;;;4932302;29;20205;-83
2022/03/21 02:45:22;;;;;;;5.20;4.43;;;6.20;47.10;6.10;97713.00;;;;4930877;28;20228;-83
2022/03/21 02:47:49;;;;;;;4.40;4.00;;;6.10;47.20;6.00;97706.00;;;;4931712;28;20209;-83
2022/03/21 02:50:21;;;;;;;6.03;4.70;;;6.10;47.30;6.00;97710.00;;;;4931745;29;20232;-83
2022/03/21 02:52:50;;;;;;;4.30;3.90;;;6.10;47.40;6.00;97711.00;;;;4931368;29;20195;-83
2022/03/21 02:55:17;;;;;;;5.77;5.00;;;6.10;47.50;6.00;97713.00;;;;4931369;28;20201;-83
2022/03/21 02:57:45;;;;;;;6.20;4.67;;;6.00;47.60;6.00;97718.00;;;;4931644;29;20196;-83
2022/03/21 03:00:14;;;;;;;6.07;4.27;;;6.00;47.70;5.90;97727.00;;;;4932538;28;20247;-83
2022/03/21 03:02:41;;;;;;;4.73;4.30;;;6.00;47.90;5.90;97724.00;;;;4931688;29;20201;-83
2022/03/21 03:05:09;;;;;;;6.60;4.80;;;6.00;47.80;5.90;97722.00;;;;4932076;28;20312;-83
2022/03/21 03:07:36;;;;;;;4.83;4.33;;;5.90;47.90;5.90;97718.00;;;;4930700;29;20215;-83
2022/03/21 03:10:03;;;;;;;5.03;4.37;;;5.90;48.00;5.90;97721.00;;;;4931340;28;20217;-83
2022/03/21 03:12:30;;;;;;;4.97;4.47;;;5.90;48.00;5.80;97727.00;;;;4931465;29;20205;-83
2022/03/21 03:14:59;;;;;;;5.23;4.50;;;5.90;47.90;5.80;97727.00;;;;4921020;28;20259;-83
2022/03/21 03:17:26;;;;;;;5.93;4.53;;;5.80;47.90;5.80;97733.00;;;;4931405;28;20207;-83
2022/03/21 03:19:54;;;;;;;5.80;4.37;;;5.90;48.40;5.70;97735.00;;;;4931606;28;20225;-83
2022/03/21 03:22:24;;;;;;;4.93;4.43;;;5.90;47.80;5.70;97735.00;;;;4932599;28;20255;-83
2022/03/21 03:24:53;;;;;;;5.63;4.47;;;5.80;47.90;5.70;97736.00;;;;4934052;28;20686;-83
2022/03/21 03:27:20;;;;;;;6.63;4.53;;;5.80;48.00;5.60;97729.00;;;;4934021;29;20196;-83
2022/03/21 03:29:47;;;;;;;5.13;4.60;;;5.70;48.10;5.60;97728.00;;;;4934635;28;20220;-82
2022/03/21 03:32:15;;;;;;;5.30;4.50;;;5.70;48.10;5.60;97738.00;;;;4934320;28;20565;-83
2022/03/21 03:34:43;;;;;;;4.83;4.30;;;5.70;48.20;5.60;97741.00;;;;4933894;28;20223;-82
2022/03/21 03:37:10;;;;;;;4.93;4.37;;;5.70;48.20;5.50;97732.00;;;;4933620;28;20574;-83
2022/03/21 03:39:37;;;;;;;8.07;5.07;;;5.60;48.20;5.50;97743.00;;;;4933986;29;20703;-83
2022/03/21 03:42:05;;;;;;;7.97;4.90;;;5.60;48.10;5.50;97737.00;;;;4933366;29;20255;-83
2022/03/21 03:44:32;;;;;;;7.33;4.93;;;5.60;48.30;5.40;97744.00;;;;4923240;28;20321;-83
2022/03/21 03:46:59;;;;;;;6.43;4.93;;;5.60;48.40;5.40;97741.00;;;;4920334;29;20207;-83
2022/03/21 03:49:27;;;;;;;4.90;4.37;;;5.50;48.60;5.40;97745.00;;;;4933716;28;20236;-83
2022/03/21 03:51:54;;;;;;;5.90;4.70;;;5.50;48.50;5.40;97741.00;;;;4933927;28;20203;-83
2022/03/21 03:54:21;;;;;;;4.73;4.33;;;5.40;48.50;5.30;97745.00;;;;4933253;28;20237;-83
2022/03/21 03:56:48;;;;;;;6.00;4.93;;;5.40;48.60;5.30;97742.00;;;;4934241;28;20580;-83
2022/03/21 03:59:15;;;;;;;5.13;4.37;;;5.40;48.50;5.30;97727.00;;;;4938557;28;20223;-83
2022/03/21 04:01:42;;;;;;;6.50;4.83;;;5.40;48.50;5.20;97736.00;;;;4944524;29;20661;-83
2022/03/21 04:04:09;;;;;;;5.60;4.90;;;5.30;48.50;5.20;97731.00;;;;4965063;28;20227;-83
2022/03/21 04:06:38;;;;;;;6.30;4.67;;;5.30;48.50;5.20;97739.00;;;;4932504;29;20197;-83
2022/03/21 04:09:05;;;;;;;5.17;4.67;;;5.30;48.70;5.10;97740.00;;;;4932313;29;20243;-82
2022/03/21 04:11:32;;;;;;;6.57;4.77;;;5.30;49.40;5.10;97733.00;;;;4932765;29;20674;-83
2022/03/21 04:13:59;;;;;;;5.67;4.73;;;5.20;48.80;5.10;97740.00;;;;4932869;29;20235;-83
2022/03/21 04:16:26;;;;;;;5.20;4.70;;;5.20;48.90;5.10;97735.00;;;;4931418;28;20212;-83
2022/03/21 04:18:53;;;;;;;5.80;4.37;;;5.20;49.10;5.10;97741.00;;;;4926065;28;20217;-83
2022/03/21 04:21:20;;;;;;;7.40;5.13;;;5.20;49.10;5.10;97747.00;;;;4941030;28;20708;-83
2022/03/21 04:23:48;;;;;;;5.63;4.70;;;5.20;49.10;5.10;97748.00;;;;4932857;29;20207;-83
2022/03/21 04:26:15;;;;;;;6.03;4.70;;;5.20;49.20;5.10;97737.00;;;;4933763;29;20308;-83
2022/03/21 04:28:42;;;;;;;6.40;4.57;;;5.20;49.10;5.00;97752.00;;;;4933270;29;20227;-83
2022/03/21 04:31:09;;;;;;;5.53;5.00;;;5.10;49.10;5.00;97753.00;;;;4933405;28;20209;-83
2022/03/21 04:33:36;;;;;;;5.93;4.70;;;5.10;49.20;5.00;97747.00;;;;4932111;28;20197;-83
2022/03/21 04:36:04;;;;;;;5.47;4.97;;;5.20;49.30;5.00;97753.00;;;;4933078;29;20201;-83
2022/03/21 04:38:31;;;;;;;5.03;4.40;;;5.10;49.30;5.00;97755.00;;;;4933329;29;20192;-83
2022/03/21 04:40:59;;;;;;;5.03;4.30;;;5.10;49.30;5.00;97755.00;;;;4932870;29;20223;-83
2022/03/21 04:43:26;;;;;;;5.90;4.43;;;5.10;49.50;5.00;97757.00;;;;4972407;28;20829;-83
2022/03/21 04:45:53;;;;;;;5.53;4.93;;;5.10;49.50;4.90;97752.00;;;;4984704;28;20277;-83
2022/03/21 04:48:21;;;;;;;5.60;4.97;;;5.00;49.60;4.90;97767.00;;;;4993176;28;20203;-83
2022/03/21 04:50:48;;;;;;;6.43;4.83;;;5.00;49.60;4.90;97759.00;;;;4933078;28;20277;-83
2022/03/21 04:53:15;;;;;;;5.90;4.80;;;5.00;49.60;4.90;97750.00;;;;4940563;29;20203;-82
2022/03/21 04:58:13;;;;;;;5.60;5.10;;;5.00;49.60;4.90;97758.00;;;;4964277;28;20205;-87
2022/03/21 05:00:40;;;;;;;5.37;4.87;;;5.00;49.60;4.80;97766.00;;;;4931688;28;20654;-87
2022/03/21 05:03:10;;;;;;;7.23;4.93;;;4.90;49.60;4.80;97762.00;;;;4965461;28;20189;-88
2022/03/21 05:05:38;;;;;;;8.60;4.77;;;4.90;49.60;4.80;97778.00;;;;4938008;28;20546;-88
2022/03/21 05:08:06;;;;;;;6.17;5.10;;;4.90;49.50;4.80;97780.00;;;;4916818;28;20287;-88
2022/03/21 05:10:35;;;;;;;6.67;5.07;;;4.90;49.60;4.80;97779.00;;;;4926958;28;20548;-88
2022/03/21 05:13:03;;;;;;;6.57;5.17;;;4.90;49.60;4.70;97759.00;;;;4916539;28;20213;-87
2022/03/21 05:15:31;;;;;;;6.47;5.27;;;4.90;49.70;4.70;97765.00;;;;4921241;28;20203;-88
2022/03/21 05:17:59;;;;;;;6.17;4.83;;;4.80;49.80;4.70;97767.00;;;;4915588;28;20530;-84
2022/03/21 05:20:27;;;;;;;7.37;4.80;;;4.80;49.80;4.70;97776.00;;;;4913324;28;20301;-84
2022/03/21 05:31:12;;;;;;;9.13;4.90;;;4.80;50.70;4.80;97785.00;;;;4915617;28;20243;-84
2022/03/21 05:36:25;;;;;;;7.37;5.30;;;4.80;50.40;4.80;97784.00;;;;4914397;29;20307;-85
2022/03/21 05:38:52;;;;;;;5.73;4.70;;;4.80;51.00;4.90;97788.00;;;;4912980;28;20204;-86
2022/03/21 05:41:19;;;;;;;5.80;5.03;;;4.80;50.50;4.90;97788.00;;;;4914435;28;20490;-85
2022/03/21 05:43:47;;;;;;;8.03;5.67;;;4.80;50.40;4.90;97794.00;;;;4930189;29;20205;-84
2022/03/21 05:46:15;;;;;;;6.43;5.00;;;4.80;51.10;5.00;97791.00;;;;4917275;28;20225;-85
2022/03/21 05:48:51;;;;;;;5.27;4.70;;;4.90;50.70;5.00;97795.00;;;;4906115;28;20251;-85
2022/03/21 05:51:19;;;;;;;6.03;5.23;;;4.90;50.60;5.00;97803.00;;;;4914205;28;20568;-84
2022/03/21 05:53:47;;;;;;;5.63;4.87;;;4.90;50.60;5.10;97804.00;;;;4910673;28;20730;-85
2022/03/21 05:56:15;;;;;;;8.17;5.00;;;4.90;50.60;5.10;97803.00;;;;4913496;28;20233;-85
2022/03/21 05:58:42;;;;;;;5.90;4.90;;;5.00;50.70;5.20;97805.00;;;;4899508;29;20719;-84
2022/03/21 06:01:11;;;;;;;6.00;4.70;;;5.00;50.80;5.20;97803.00;;;;4896932;28;20212;-85
2022/03/21 06:03:40;;;;;;;5.90;5.13;;;5.00;50.70;5.30;97810.00;;;;4908448;28;20260;-84
2022/03/21 06:06:08;;;;;;;5.70;4.60;;;5.10;50.70;5.30;97808.00;;;;4897764;28;20320;-85
2022/03/21 06:08:35;;;;;;;6.17;4.80;;;5.10;50.70;5.40;97814.00;;;;4899580;28;20210;-85
2022/03/21 06:11:04;;;;;;;4.83;4.33;;;5.20;50.80;5.50;97807.00;;;;4905160;28;20280;-85
2022/03/21 06:13:33;;;;;;;7.00;5.30;;;5.20;50.80;5.60;97821.00;;;;4910531;28;20697;-84
2022/03/21 06:16:03;;;;;;;6.67;4.77;;;5.30;50.70;5.60;97822.00;;;;4900110;28;20691;-85
2022/03/21 06:18:31;;;;;;;7.93;4.70;;;5.40;50.80;5.70;97832.00;;;;4908866;28;20261;-84
2022/03/21 06:21:00;;;;;;;5.73;4.80;;;5.40;50.70;5.80;97835.00;;;;4909412;28;20194;-85
2022/03/21 06:23:28;;;;;;;6.63;4.43;;;5.50;50.70;5.90;97829.00;;;;4912822;28;20300;-85
2022/03/21 06:25:57;;;;;;;6.90;4.60;;;5.60;50.70;5.90;97831.00;;;;4907984;28;20259;-85
2022/03/21 06:28:26;;;;;;;5.97;4.20;;;5.70;50.60;6.00;97827.00;;;;4913476;28;20209;-84
2022/03/21 06:30:53;;;;;;;5.50;4.80;;;5.70;50.50;6.10;97844.00;;;;4900864;28;20228;-87
2022/03/21 06:33:24;;;;;;;5.93;4.50;;;5.80;50.40;6.20;97846.00;;;;4908125;29;20281;-83
2022/03/21 06:35:53;;;;;;;7.93;4.50;;;5.90;50.30;6.30;97844.00;;;;4908014;29;20201;-84
2022/03/21 06:38:22;;;;;;;5.93;5.20;;;6.00;50.40;6.40;97849.00;;;;4908859;28;20198;-85
2022/03/21 06:40:49;;;;;;;6.13;4.50;;;6.10;50.40;6.40;97844.00;;;;4901257;28;20197;-87
2022/03/21 06:43:17;;;;;;;5.80;4.67;;;6.10;50.30;6.50;97844.00;;;;4892406;28;20198;-85
2022/03/21 06:45:47;;;;;;;6.33;4.63;;;6.20;50.10;6.60;97848.00;;;;4913679;28;20273;-87
2022/03/21 06:48:14;;;;;;;8.27;4.60;;;6.30;50.00;6.70;97858.00;;;;4902037;28;20206;-86
2022/03/21 06:50:41;;;;;;;5.97;4.67;;;6.40;50.00;6.70;97853.00;;;;4898092;28;20292;-86
2022/03/21 06:53:08;;;;;;;5.63;4.73;;;6.40;49.80;6.80;97859.00;;;;4938428;28;20208;-86
2022/03/21 06:55:36;;;;;;;5.90;4.90;;;6.50;49.80;6.90;97856.00;;;;4902546;28;20220;-86
2022/03/21 06:58:06;;;;;;;6.07;4.50;;;6.60;50.10;6.90;97859.00;;;;4908259;28;20558;-85
2022/03/21 07:00:34;;;;;;;5.90;4.50;;;6.60;49.40;7.00;97859.00;;;;4915224;28;20263;-86
2022/03/21 07:03:01;;;;;;;5.07;4.30;;;6.70;49.50;7.10;97856.00;;;;4925275;28;20197;-85
2022/03/21 07:05:29;;;;;;;5.93;4.57;;;6.70;49.50;7.10;97863.00;;;;4920020;28;20308;-85
2022/03/21 07:07:56;;;;;;;5.60;4.77;;;6.80;49.40;7.20;97864.00;;;;4922874;29;20231;-86
2022/03/21 07:10:23;;;;;;;5.80;4.83;;;6.90;49.20;7.30;97871.00;;;;4932133;28;20668;-84
2022/03/21 07:12:52;;;;;;;5.20;4.70;;;7.00;49.30;7.40;97875.00;;;;4912980;28;20202;-85
2022/03/21 07:15:19;;;;;;;4.87;4.37;;;7.10;49.40;7.40;97883.00;;;;4908299;29;20202;-84
2022/03/21 07:17:48;;;;;;;4.93;4.43;;;7.10;49.30;7.50;97879.00;;;;4904338;28;20218;-84
2022/03/21 07:20:15;;;;;;;5.10;4.60;;;7.20;49.20;7.60;97887.00;;;;4911251;28;20202;-84
2022/03/21 07:22:42;;;;;;;4.87;4.43;;;7.30;49.10;7.70;97890.00;;;;4965896;28;20205;-84
2022/03/21 07:25:10;;;;;;;4.80;4.30;;;7.40;49.20;7.80;97888.00;;;;4898602;29;20222;-84
2022/03/21 07:27:37;;;;;;;7.03;4.50;;;7.50;49.10;7.90;97891.00;;;;4904115;28;20218;-86
2022/03/21 07:30:07;;;;;;;5.10;4.60;;;7.60;49.50;8.00;97903.00;;;;4909860;28;20202;-85
2022/03/21 07:32:36;;;;;;;6.73;4.97;;;7.60;48.80;8.10;97897.00;;;;4909737;29;20202;-84
2022/03/21 07:35:04;;;;;;;5.10;4.40;;;7.70;48.80;8.20;97900.00;;;;4905723;28;20206;-85
2022/03/21 07:37:40;;;;;;;4.97;4.57;;;7.80;48.80;8.30;97897.00;;;;4909535;28;20308;-85
2022/03/21 07:40:11;;;;;;;5.17;4.33;;;7.90;48.50;8.40;97899.00;;;;4906060;29;20207;-85
2022/03/21 07:42:38;;;;;;;4.60;4.20;;;8.00;48.50;8.60;97906.00;;;;4899837;29;20237;-85
2022/03/21 07:47:54;;;;;;;5.20;4.70;;;8.30;48.50;8.90;97914.00;;;;4916592;29;20733;-85
2022/03/21 07:50:23;;;;;;;4.93;4.43;;;8.40;48.40;9.10;97914.00;;;;4914898;29;20189;-85
2022/03/21 07:52:51;;;;;;;5.57;4.80;;;8.60;48.50;9.30;97918.00;;;;4917907;28;20198;-85
2022/03/21 07:55:18;;;;;;;5.07;4.30;;;8.70;47.20;9.50;97918.00;;;;4902793;28;20197;-85
2022/03/21 07:57:46;;;;;;;5.53;4.63;;;8.90;47.90;9.70;97931.00;;;;4948513;28;20294;-85
2022/03/21 08:00:16;;;;;;;6.67;4.60;;;9.00;47.90;9.90;97930.00;;;;4919749;28;20204;-85
2022/03/21 08:02:45;;;;;;;5.27;4.77;;;9.30;47.90;10.10;97937.00;;;;4972059;28;20210;-85
2022/03/21 08:05:14;;;;;;;5.00;4.50;;;9.40;47.90;10.30;97927.00;;;;4967971;28;20238;-84
2022/03/21 08:07:41;;;;;;;5.20;4.70;;;9.60;47.60;10.50;97934.00;;;;4910230;28;20271;-84
2022/03/21 08:10:10;;;;;;;5.17;4.67;;;9.80;47.30;10.60;97937.00;;;;4901898;28;20202;-86
2022/03/21 08:12:37;;;;;;;5.87;4.73;;;10.00;47.00;10.80;97942.00;;;;4914275;29;20209;-85
2022/03/21 08:15:06;;;;;;;6.60;4.93;;;10.20;46.80;11.00;97940.00;;;;4908454;28;20281;-85
2022/03/21 08:17:50;;;;;;;4.77;4.37;;;10.30;46.60;11.20;97944.00;;;;4902624;28;20233;-85
2022/03/21 08:20:20;;;;;;;6.33;4.20;;;10.50;46.70;11.40;97954.00;;;;4914827;29;20201;-85
2022/03/21 08:22:48;;;;;;;5.53;4.43;;;10.70;46.60;11.60;97950.00;;;;4916095;28;20211;-85
2022/03/21 08:25:16;;;;;;;5.03;4.20;;;10.80;46.30;11.80;97957.00;;;;4901438;28;20230;-85
2022/03/21 08:27:44;;;;;;;4.43;4.03;;;11.00;46.10;12.00;97957.00;;;;4908791;28;20309;-85
2022/03/21 08:30:13;;;;;;;5.53;4.70;;;11.20;46.10;12.30;97962.00;;;;4929958;28;20216;-84
2022/03/21 08:32:41;;;;;;;4.73;4.33;;;11.40;46.00;12.50;97961.00;;;;4914061;29;20193;-84
2022/03/21 08:35:10;;;;;;;4.90;4.50;;;11.60;45.50;12.70;97963.00;;;;4914557;29;20651;-84
2022/03/21 08:37:37;;;;;;;5.77;5.13;;;11.80;44.80;12.90;97964.00;;;;4898529;28;20254;-85
2022/03/21 08:40:06;;;;;;;5.60;4.70;;;11.90;44.60;13.20;97969.00;;;;4898890;28;20208;-85
2022/03/21 08:42:33;;;;;;;5.87;5.00;;;12.10;44.20;13.40;97966.00;;;;4911449;28;20204;-84
2022/03/21 08:45:00;;;;;;;5.40;4.90;;;12.30;44.10;13.70;97975.00;;;;4908667;28;20201;-85
2022/03/21 08:47:27;;;;;;;4.77;4.37;;;12.50;44.10;14.00;97969.00;;;;4916912;28;20607;-85
2022/03/21 08:49:56;;;;;;;5.07;4.57;;;12.70;44.40;14.30;97974.00;;;;4911349;28;20730;-85
2022/03/21 08:52:23;;;;;;;5.47;4.53;;;12.90;44.40;14.60;97982.00;;;;4914436;28;20201;-85
2022/03/21 08:54:50;;;;;;;4.90;4.20;;;13.20;44.40;14.90;97975.00;;;;4910511;28;20204;-84
2022/03/21 08:57:18;;;;;;;6.43;4.53;;;13.50;44.60;15.20;97981.00;;;;4905209;28;20230;-85
2022/03/21 08:59:47;;;;;;;4.90;4.50;;;13.70;44.40;15.40;97982.00;;;;4919795;28;20192;-85
2022/03/21 09:02:18;;;;;;;4.90;4.47;;;14.00;43.80;15.70;97991.00;;;;4925029;28;20201;-85
2022/03/21 09:04:45;;;;;;;5.13;4.63;;;14.40;44.00;15.90;97982.00;;;;4929618;29;20239;-85
2022/03/21 09:07:14;;;;;;;4.80;4.30;;;14.80;43.80;16.20;97984.00;;;;4932671;28;20664;-85
2022/03/21 09:09:41;;;;;;;4.90;4.40;;;15.20;43.30;16.40;97989.00;;;;4908891;28;20197;-85
2022/03/21 09:12:10;;;;;;;4.70;4.30;;;15.70;43.20;16.70;97988.00;;;;4905274;29;20207;-85
2022/03/21 09:14:38;;;;;;;4.27;3.87;;;16.20;42.70;16.90;97986.00;;;;4936806;28;20624;-85
2022/03/21 09:17:06;;;;;;;4.57;4.17;;;16.70;42.20;17.10;97991.00;;;;4913378;28;20224;-85
2022/03/21 09:19:33;;;;;;;5.60;4.33;;;17.10;41.70;17.30;97996.00;;;;4914321;28;20289;-85
2022/03/21 09:22:00;;;;;;;4.00;3.70;;;17.60;40.80;17.50;97997.00;;;;4916848;28;20577;-85
2022/03/21 09:24:29;;;;;;;5.23;4.73;;;18.00;40.60;17.70;97994.00;;;;4902208;28;20228;-85
2022/03/21 09:26:56;;;;;;;5.40;4.90;;;18.40;39.20;17.90;97989.00;;;;4895675;28;20244;-85
2022/03/21 09:29:24;;;;;;;5.90;5.00;;;18.60;37.50;18.10;97994.00;;;;4901755;28;20200;-85
2022/03/21 09:31:51;;;;;;;5.40;4.90;;;18.80;37.00;18.20;97988.00;;;;4924790;28;20239;-85
2022/03/21 09:34:19;;;;;;;5.53;4.83;;;19.00;37.10;18.40;97991.00;;;;4911355;28;20205;-85
2022/03/21 09:36:48;;;;;;;5.53;5.03;;;19.20;36.80;18.60;97992.00;;;;4906563;28;20231;-85
2022/03/21 09:39:15;;;;;;;5.40;4.70;;;19.30;36.50;18.70;97987.00;;;;4897807;28;20202;-85
2022/03/21 09:41:44;;;;;;;5.73;5.07;;;19.50;36.80;18.80;97987.00;;;;4915967;28;20709;-85
2022/03/21 09:44:12;;;;;;;4.93;4.43;;;19.50;36.50;18.90;97981.00;;;;4917859;28;20244;-85
2022/03/21 09:46:41;;;;;;;5.93;5.17;;;19.60;36.40;19.00;97982.00;;;;4901177;28;20230;-85
2022/03/21 09:49:11;;;;;;;5.93;5.07;;;19.70;35.70;19.10;97986.00;;;;4914777;29;20227;-85
2022/03/21 09:51:40;;;;;;;6.00;4.90;;;19.70;36.00;19.30;97979.00;;;;4926571;28;20204;-85
2022/03/21 09:54:08;;;;;;;6.17;4.67;;;19.80;36.10;19.40;97989.00;;;;4904347;29;20198;-85
2022/03/21 09:56:35;;;;;;;4.97;4.50;;;19.80;36.60;19.40;97981.00;;;;4898448;28;20234;-85
2022/03/21 09:59:04;;;;;;;4.90;4.40;;;19.80;35.70;19.50;97978.00;;;;4899928;28;20198;-85
2022/03/21 10:01:34;;;;;;;5.57;5.07;;;19.90;36.00;19.50;97975.00;;;;4902422;28;20411;-85
2022/03/21 10:04:02;;;;;;;5.43;5.03;;;19.80;35.10;19.50;97985.00;;;;4902598;28;20664;-85
2022/03/21 10:06:32;;;;;;;5.13;4.17;;;19.80;34.50;19.50;97983.00;;;;4908130;28;20256;-85
2022/03/21 10:09:11;;;;;;;5.53;4.97;;;19.80;34.90;19.50;97985.00;;;;4907593;28;20525;-84
2022/03/21 10:11:40;;;;;;;5.50;5.00;;;19.70;33.00;19.40;97974.00;;;;4917182;28;20209;-84
2022/03/21 10:14:32;;;;;;;5.07;4.67;;;19.70;33.90;19.40;97979.00;;;;4903630;28;20199;-85
2022/03/21 10:17:02;;;;;;;4.80;4.03;;;19.70;34.40;19.40;97975.00;;;;4907890;28;20229;-84
2022/03/21 10:19:44;;;;;;;6.17;5.23;;;19.70;35.00;19.40;97966.00;;;;4911893;28;20694;-84
2022/03/21 10:22:15;;;;;;;5.00;4.50;;;19.80;34.40;19.40;97971.00;;;;4913486;29;20566;-84
2022/03/21 10:24:44;;;;;;;5.37;4.87;;;19.80;35.20;19.40;97972.00;;;;4911968;29;20202;-84
2022/03/21 10:27:32;;;;;;;5.33;4.83;;;19.90;35.10;19.50;97976.00;;;;4912733;28;20235;-85
2022/03/21 10:30:03;;;;;;;10.23;4.93;;;20.00;34.30;19.50;97966.00;;;;4902137;28;20216;-85
2022/03/21 10:32:40;;;;;;;4.77;4.23;;;20.10;34.70;19.50;97964.00;;;;4909358;28;20645;-84
2022/03/21 10:35:12;;;;;;;4.53;4.13;;;20.20;34.60;19.50;97968.00;;;;4910322;29;20204;-85
2022/03/21 10:37:50;;;;;;;4.57;4.17;;;20.30;34.80;19.60;97974.00;;;;4911086;28;20309;-85
2022/03/21 10:40:27;;;;;;;5.30;4.83;;;20.50;34.60;19.70;97968.00;;;;4915866;29;20280;-85
2022/03/21 10:42:59;;;;;;;5.60;4.73;;;20.60;34.30;19.80;97973.00;;;;4899532;29;20209;-85
2022/03/21 10:45:43;;;;;;;6.57;5.97;;;20.80;34.00;19.80;97967.00;;;;4915050;29;20209;-83
2022/03/21 10:48:13;;;;;;;5.00;4.57;;;20.80;32.40;19.80;97969.00;;;;4914366;28;20297;-86
2022/03/21 10:50:46;;;;;;;5.67;5.10;;;20.90;33.40;19.70;97965.00;;;;4917953;28;20201;-85
2022/03/21 10:53:15;;;;;;;5.67;5.17;;;20.90;32.00;19.60;97961.00;;;;4928940;28;20208;-85
2022/03/21 10:55:45;;;;;;;5.33;4.90;;;20.80;31.80;19.50;97967.00;;;;4942752;28;20202;-85
2022/03/21 10:58:14;;;;;;;9.00;5.17;;;20.60;32.30;19.50;97953.00;;;;4985196;22;20244;-84
2022/03/21 11:00:43;;;;;;;5.63;4.87;;;20.50;32.70;19.50;97959.00;;;;4972332;28;20204;-83
2022/03/21 11:03:15;;;;;;;5.10;4.60;;;20.30;32.60;19.40;97954.00;;;;4950285;28;20196;-83
2022/03/21 11:05:45;;;;;;;5.03;4.63;;;20.10;32.90;19.30;97958.00;;;;4966077;28;20189;-83
2022/03/21 11:08:15;;;;;;;5.63;5.03;;;19.90;32.80;19.20;97956.00;;;;4936675;28;20267;-84
2022/03/21 11:10:43;;;;;;;5.87;5.00;;;19.70;33.10;19.10;97952.00;;;;4938899;28;20205;-84
2022/03/21 11:13:13;;;;;;;6.33;5.77;;;19.50;33.30;19.00;97947.00;;;;4932659;28;20573;-83
2022/03/21 11:15:42;;;;;;;6.33;5.40;;;19.30;33.50;18.90;97945.00;;;;4934392;28;20554;-84
2022/03/21 11:18:10;;;;;;;6.27;5.33;;;19.10;33.30;18.70;97948.00;;;;4932470;28;20217;-83
2022/03/21 11:20:38;;;;;;;5.87;5.30;;;18.90;33.60;18.60;97942.00;;;;4941831;28;20209;-83
2022/03/21 11:23:06;;;;;;;5.17;4.67;;;18.70;33.60;18.40;97934.00;;;;4927851;28;20639;-83
2022/03/21 11:25:36;;;;;;;5.47;5.00;;;18.60;33.90;18.30;97930.00;;;;4932051;28;20209;-83
2022/03/21 11:28:37;;;;;;;5.97;5.37;;;18.40;34.20;18.20;97931.00;;;;4915725;29;20275;-83
2022/03/21 11:31:32;;;;;;;5.60;5.10;;;18.30;34.30;18.10;97930.00;;;;4929002;29;20315;-82